createdAt,value
2023-02-14T00:00:34.628Z,10.38
2023-02-14T00:03:01.213Z,10.18
2023-02-14T00:05:27.824Z,10.10
2023-02-14T00:08:06.415Z,9.68
2023-02-14T00:10:32.951Z,9.60
2023-02-14T00:12:59.621Z,10.10
2023-02-14T00:15:26.189Z,10.98
2023-02-14T00:18:14.613Z,10.82
2023-02-14T00:24:11.643Z,10.35
2023-02-14T00:26:41.357Z,10.57
2023-02-14T00:29:10.211Z,10.70
2023-02-14T00:31:37.487Z,9.85
2023-02-14T00:34:04.573Z,10.95
2023-02-14T00:58:35.061Z,11.85
2023-02-14T01:01:02.136Z,10.98
2023-02-14T01:03:29.080Z,11.50
2023-02-14T01:05:55.672Z,11.23
2023-02-14T01:08:22.234Z,12.02
2023-02-14T01:13:24.362Z,11.82
2023-02-14T01:15:52.123Z,11.00
2023-02-14T01:18:19.701Z,11.20
2023-02-14T01:20:46.524Z,11.10
2023-02-14T01:23:13.116Z,11.60
2023-02-14T01:25:40.104Z,11.98
2023-02-14T01:28:34.960Z,12.23
2023-02-14T01:31:32.554Z,12.10
2023-02-14T01:33:59.805Z,11.88
2023-02-14T01:36:32.611Z,10.85
2023-02-14T01:39:03.049Z,12.30
2023-02-14T01:41:33.147Z,12.73
2023-02-14T01:44:00.926Z,12.75
2023-02-14T01:49:40.737Z,11.88
2023-02-14T01:53:08.849Z,11.35
2023-02-14T01:55:48.774Z,11.12
2023-02-14T02:01:26.842Z,11.65
2023-02-14T02:09:44.723Z,11.25
2023-02-14T02:12:11.996Z,11.25
2023-02-14T02:14:39.758Z,10.70
2023-02-14T02:17:43.388Z,10.98
2023-02-14T02:23:09.232Z,11.45
2023-02-14T02:25:57.248Z,11.12
2023-02-14T02:28:44.681Z,11.93
2023-02-14T02:31:30.148Z,11.98
2023-02-14T02:34:30.465Z,11.82
2023-02-14T02:41:12.054Z,11.60
2023-02-14T02:46:41.601Z,10.82
2023-02-14T02:50:08.440Z,11.43
2023-02-14T02:55:54.665Z,19.90
2023-02-14T02:58:24.412Z,19.48
2023-02-14T03:00:53.772Z,17.70
2023-02-14T03:03:43.027Z,16.00
2023-02-14T03:06:47.551Z,14.73
2023-02-14T03:09:33.436Z,13.75
2023-02-14T03:12:31.693Z,14.05
2023-02-14T03:15:31.507Z,13.62
2023-02-14T03:18:50.996Z,12.73
2023-02-14T03:21:26.385Z,11.60
2023-02-14T03:27:12.399Z,11.18
2023-02-14T03:29:51.000Z,11.12
2023-02-14T03:32:31.409Z,11.20
2023-02-14T03:35:35.701Z,11.18
2023-02-14T03:38:58.867Z,11.00
2023-02-14T03:41:31.569Z,11.48
2023-02-14T03:44:03.023Z,11.07
2023-02-14T03:46:39.422Z,11.63
2023-02-14T03:49:11.687Z,11.60
2023-02-14T03:51:39.698Z,12.10
2023-02-14T03:57:14.149Z,11.55
2023-02-14T03:59:42.292Z,12.32
2023-02-14T04:02:27.847Z,11.93
2023-02-14T04:05:32.280Z,12.85
2023-02-14T04:08:46.045Z,12.23
2023-02-14T04:11:13.185Z,12.70
2023-02-14T04:13:39.949Z,11.75
2023-02-14T04:16:07.230Z,12.10
2023-02-14T04:18:52.892Z,12.50
2023-02-14T04:21:19.551Z,12.07
2023-02-14T04:26:28.163Z,11.75
2023-02-14T04:28:54.789Z,11.82
2023-02-14T04:31:21.510Z,11.55
2023-02-14T04:34:46.777Z,11.18
2023-02-14T04:37:41.668Z,10.82
2023-02-14T04:40:26.584Z,11.00
2023-02-14T04:42:53.194Z,12.85
2023-02-14T04:45:19.831Z,12.20
2023-02-14T04:47:46.703Z,12.70
2023-02-14T04:50:13.884Z,12.10
2023-02-14T04:52:41.325Z,11.52
2023-02-14T04:55:17.015Z,11.60
2023-02-14T04:57:43.597Z,10.45
2023-02-14T05:00:11.079Z,12.35
2023-02-14T05:02:37.678Z,11.77
2023-02-14T05:05:22.586Z,11.30
2023-02-14T05:10:44.696Z,12.75
2023-02-14T05:13:11.254Z,13.73
2023-02-14T05:15:38.617Z,13.13
2023-02-14T05:18:05.947Z,13.43
2023-02-14T05:20:32.829Z,13.65
2023-02-14T05:25:54.098Z,10.73
2023-02-14T05:28:20.724Z,11.85
2023-02-14T05:33:52.194Z,12.23
2023-02-14T06:02:15.963Z,13.57
2023-02-14T06:04:43.113Z,13.00
2023-02-14T06:07:09.749Z,12.80
2023-02-14T06:09:58.041Z,13.62
2023-02-14T06:12:46.215Z,12.95
2023-02-14T06:15:12.854Z,13.98
2023-02-14T06:17:39.532Z,14.95
2023-02-14T06:20:07.392Z,14.68
2023-02-14T06:22:33.985Z,15.65
2023-02-14T06:25:00.569Z,20.23
2023-02-14T06:27:29.865Z,21.60
2023-02-14T06:29:57.543Z,24.17
2023-02-14T06:32:24.292Z,24.80
2023-02-14T06:35:09.806Z,22.23
2023-02-14T06:37:36.368Z,18.87
2023-02-14T06:40:03.096Z,19.10
2023-02-14T06:42:29.643Z,16.98
2023-02-14T06:44:56.203Z,16.95
2023-02-14T06:47:41.370Z,15.90
2023-02-14T06:50:11.581Z,16.75
2023-02-14T06:52:38.634Z,16.75
2023-02-14T06:55:05.805Z,16.20
2023-02-14T06:57:32.393Z,16.05
2023-02-14T06:59:59.039Z,15.95
2023-02-14T07:02:25.783Z,15.25
2023-02-14T07:04:52.494Z,15.60
2023-02-14T07:07:19.256Z,15.93
2023-02-14T07:09:48.962Z,15.27
2023-02-14T07:12:15.557Z,14.87
2023-02-14T07:14:42.406Z,15.00
2023-02-14T07:17:08.954Z,15.15
2023-02-14T07:19:35.582Z,17.23
2023-02-14T07:22:02.174Z,24.30
2023-02-14T07:24:28.845Z,24.30
2023-02-14T07:26:55.397Z,26.40
2023-02-14T07:29:21.981Z,26.92
2023-02-14T07:31:48.769Z,29.90
2023-02-14T07:34:15.448Z,27.95
2023-02-14T07:36:42.266Z,27.13
2023-02-14T07:39:08.823Z,26.15
2023-02-14T07:41:35.440Z,24.70
2023-02-14T07:44:02.010Z,23.83
2023-02-14T07:46:28.583Z,22.67
2023-02-14T07:48:55.236Z,24.95
2023-02-14T07:51:21.830Z,25.05
2023-02-14T07:53:48.498Z,24.92
2023-02-14T07:56:15.129Z,25.65
2023-02-14T07:58:41.800Z,24.15
2023-02-14T08:01:08.664Z,22.65
2023-02-14T08:03:35.217Z,20.67
2023-02-14T08:06:01.831Z,22.80
2023-02-14T08:08:30.831Z,20.52
2023-02-14T08:10:58.032Z,22.40
2023-02-14T08:13:24.860Z,21.05
2023-02-14T08:16:07.360Z,21.52
2023-02-14T08:18:40.720Z,21.67
2023-02-14T08:21:09.544Z,19.75
2023-02-14T08:23:36.960Z,20.67
2023-02-14T08:26:03.829Z,21.42
2023-02-14T08:28:32.341Z,22.05
2023-02-14T08:30:59.567Z,21.20
2023-02-14T08:33:26.395Z,18.10
2023-02-14T08:35:53.006Z,20.70
2023-02-14T08:38:19.631Z,20.62
2023-02-14T08:40:46.318Z,19.75
2023-02-14T08:43:13.392Z,26.48
2023-02-14T08:45:40.381Z,25.33
2023-02-14T08:48:10.045Z,24.27
2023-02-14T08:50:37.803Z,25.10
2023-02-14T08:53:12.351Z,23.15
2023-02-14T08:55:40.019Z,25.55
2023-02-14T08:58:07.617Z,24.25
2023-02-14T09:00:34.268Z,24.30
2023-02-14T09:03:01.324Z,23.73
2023-02-14T09:05:28.011Z,18.35
2023-02-14T09:07:56.535Z,18.85
2023-02-14T09:10:24.849Z,17.20
2023-02-14T09:12:52.287Z,16.75
2023-02-14T09:15:19.279Z,16.33
2023-02-14T09:17:46.654Z,15.18
2023-02-14T09:20:16.598Z,14.10
2023-02-14T09:22:43.715Z,15.30
2023-02-14T09:25:10.602Z,15.95
2023-02-14T09:27:37.750Z,14.30
2023-02-14T09:30:06.266Z,15.20
2023-02-14T09:32:33.162Z,14.32
2023-02-14T09:35:00.238Z,14.45
2023-02-14T09:37:27.147Z,14.98
2023-02-14T09:39:53.702Z,14.68
2023-02-14T09:42:26.403Z,14.70
2023-02-14T09:45:02.741Z,14.73
2023-02-14T09:47:52.090Z,14.10
2023-02-14T09:51:02.552Z,14.85
2023-02-14T09:53:33.543Z,12.35
2023-02-14T09:56:00.290Z,12.82
2023-02-14T09:58:59.227Z,11.27
2023-02-14T10:01:40.927Z,10.65
2023-02-14T10:04:07.536Z,11.80
2023-02-14T10:06:49.320Z,11.82
2023-02-14T10:09:37.495Z,10.82
2023-02-14T10:12:05.976Z,9.32
2023-02-14T10:14:40.355Z,9.70
2023-02-14T10:17:15.345Z,9.38
2023-02-14T10:19:48.287Z,9.25
2023-02-14T10:22:17.115Z,9.68
2023-02-14T10:24:57.612Z,9.07
2023-02-14T10:27:34.987Z,9.88
2023-02-14T10:30:03.432Z,9.68
2023-02-14T10:32:45.166Z,9.07
2023-02-14T10:35:23.524Z,9.80
2023-02-14T10:38:13.399Z,8.95
2023-02-14T10:41:16.668Z,9.52
2023-02-14T10:44:17.304Z,9.48
2023-02-14T10:46:56.177Z,9.43
2023-02-14T10:49:38.608Z,9.73
2023-02-14T10:52:43.761Z,9.38
2023-02-14T10:55:31.892Z,8.88
2023-02-14T10:58:07.113Z,8.90
2023-02-14T11:00:37.831Z,9.35
2023-02-14T11:03:10.840Z,8.82
2023-02-14T11:05:47.790Z,9.32
2023-02-14T11:09:05.040Z,9.55
2023-02-14T11:12:10.250Z,9.40
2023-02-14T11:14:39.857Z,8.98
2023-02-14T11:17:29.567Z,8.98
2023-02-14T11:20:06.369Z,9.73
2023-02-14T11:22:34.911Z,9.05
2023-02-14T11:25:35.604Z,8.98
2023-02-14T11:28:19.736Z,9.25
2023-02-14T11:30:48.483Z,8.85
2023-02-14T11:33:44.227Z,8.77
2023-02-14T11:36:17.523Z,8.88
2023-02-14T11:39:26.838Z,8.65
2023-02-14T11:42:13.031Z,9.07
2023-02-14T11:44:55.016Z,9.48
2023-02-14T11:47:29.574Z,8.25
2023-02-14T11:50:10.968Z,7.00
2023-02-14T11:52:49.977Z,7.72
2023-02-14T11:55:42.728Z,8.60
2023-02-14T11:58:46.959Z,8.52
2023-02-14T12:01:24.486Z,8.52
2023-02-14T12:03:52.693Z,7.93
2023-02-14T12:06:31.377Z,8.63
2023-02-14T12:09:24.025Z,7.18
2023-02-14T12:12:14.811Z,7.85
2023-02-14T12:14:41.549Z,7.43
2023-02-14T12:17:28.990Z,7.78
2023-02-14T12:20:03.554Z,8.07
2023-02-14T12:22:35.057Z,7.05
2023-02-14T12:25:16.843Z,6.87
2023-02-14T12:28:04.208Z,8.93
2023-02-14T12:30:35.035Z,8.27
2023-02-14T12:33:01.980Z,7.87
2023-02-14T12:36:02.395Z,7.68
2023-02-14T12:38:47.694Z,8.10
2023-02-14T12:41:32.644Z,8.15
2023-02-14T12:44:06.478Z,7.95
2023-02-14T12:47:02.363Z,7.70
2023-02-14T12:49:52.494Z,7.45
2023-02-14T12:52:41.162Z,7.22
2023-02-14T12:55:38.648Z,6.97
2023-02-14T12:58:23.787Z,6.90
2023-02-14T13:01:28.878Z,7.75
2023-02-14T13:04:25.525Z,7.20
2023-02-14T13:07:00.284Z,8.10
2023-02-14T13:10:05.136Z,7.43
2023-02-14T13:12:52.157Z,8.88
2023-02-14T13:15:28.758Z,7.40
2023-02-14T13:17:58.748Z,8.63
2023-02-14T13:20:41.190Z,6.68
2023-02-14T13:23:40.005Z,7.72
2023-02-14T13:26:12.967Z,8.60
2023-02-14T13:31:07.777Z,7.20
2023-02-14T13:33:39.498Z,7.50
2023-02-14T13:36:12.256Z,7.68
2023-02-14T13:38:46.770Z,7.65
2023-02-14T13:41:15.399Z,7.87
2023-02-14T13:43:45.699Z,7.55
2023-02-14T13:46:15.002Z,9.10
2023-02-14T13:48:42.975Z,8.00
2023-02-14T13:51:10.261Z,8.35
2023-02-14T13:53:38.808Z,7.95
2023-02-14T13:56:17.467Z,8.40
2023-02-14T13:58:55.896Z,8.02
2023-02-14T14:01:33.102Z,7.90
2023-02-14T14:04:25.909Z,8.68
2023-02-14T14:07:04.408Z,8.55
2023-02-14T14:09:43.593Z,8.48
2023-02-14T14:12:28.651Z,8.55
2023-02-14T14:15:04.446Z,8.95
2023-02-14T14:17:37.315Z,9.02
2023-02-14T14:20:26.715Z,9.82
2023-02-14T14:22:56.066Z,9.07
2023-02-14T14:25:42.871Z,8.95
2023-02-14T14:28:21.448Z,9.05
2023-02-14T14:30:48.376Z,8.68
2023-02-14T14:33:24.585Z,8.70
2023-02-14T14:36:00.705Z,8.60
2023-02-14T14:38:30.027Z,7.90
2023-02-14T14:40:57.784Z,7.70
2023-02-14T14:43:31.401Z,8.40
2023-02-14T14:46:02.329Z,7.97
2023-02-14T14:48:38.332Z,8.18
2023-02-14T14:51:07.798Z,7.57
2023-02-14T14:53:41.983Z,7.75
2023-02-14T14:59:36.246Z,8.55
2023-02-14T15:02:20.619Z,8.38
2023-02-14T15:04:47.270Z,8.00
2023-02-14T15:07:18.243Z,8.48
2023-02-14T15:09:44.948Z,8.32
2023-02-14T15:15:52.346Z,7.75
2023-02-14T15:18:34.031Z,8.15
2023-02-14T15:21:02.947Z,8.30
2023-02-14T15:23:29.769Z,8.00
2023-02-14T15:25:56.427Z,7.93
2023-02-14T15:28:41.359Z,7.97
2023-02-14T15:31:08.174Z,8.57
2023-02-14T15:33:36.542Z,8.63
2023-02-14T15:36:06.339Z,8.95
2023-02-14T15:38:36.468Z,8.25
2023-02-14T15:41:16.864Z,8.43
2023-02-14T15:43:43.474Z,8.88
2023-02-14T15:46:28.014Z,8.23
2023-02-14T15:49:01.184Z,8.50
2023-02-14T15:51:35.780Z,9.90
2023-02-14T15:54:06.436Z,8.50
2023-02-14T15:56:45.756Z,8.88
2023-02-14T15:59:17.784Z,8.93
2023-02-14T16:01:57.620Z,9.60
2023-02-14T16:04:35.222Z,9.68
2023-02-14T16:07:22.178Z,8.57
2023-02-14T16:09:49.680Z,8.77
2023-02-14T16:12:37.109Z,10.32
2023-02-14T16:15:18.888Z,9.75
2023-02-14T16:17:45.626Z,10.80
2023-02-14T16:20:42.269Z,10.45
2023-02-14T16:23:25.417Z,11.70
2023-02-14T16:25:53.265Z,12.77
2023-02-14T16:28:20.390Z,12.40
2023-02-14T16:30:52.794Z,11.60
2023-02-14T16:33:22.366Z,11.63
2023-02-14T16:35:49.726Z,13.13
2023-02-14T16:38:18.802Z,12.75
2023-02-14T16:40:47.961Z,13.68
2023-02-14T16:43:16.002Z,13.25
2023-02-14T16:45:43.259Z,14.25
2023-02-14T16:48:10.347Z,14.73
2023-02-14T16:50:38.952Z,15.63
2023-02-14T16:53:12.053Z,16.98
2023-02-14T16:58:06.563Z,18.45
2023-02-14T17:00:33.165Z,17.08
2023-02-14T17:03:17.571Z,16.75
2023-02-14T17:05:44.323Z,15.20
2023-02-14T17:08:13.296Z,14.98
2023-02-14T17:10:42.218Z,14.52
2023-02-14T17:13:10.760Z,13.80
2023-02-14T17:15:39.061Z,14.40
2023-02-14T17:18:11.346Z,26.55
2023-02-14T17:20:40.626Z,40.97
2023-02-14T17:23:07.215Z,21.42
2023-02-14T17:25:33.866Z,42.97
2023-02-14T17:28:01.096Z,23.08
2023-02-14T17:30:28.138Z,18.02
2023-02-14T17:32:54.706Z,18.27
2023-02-14T17:35:21.290Z,18.75
2023-02-14T17:37:48.179Z,18.20
2023-02-14T17:40:15.063Z,19.02
2023-02-14T17:42:41.861Z,21.48
2023-02-14T17:45:11.689Z,20.02
2023-02-14T17:47:39.736Z,18.33
2023-02-14T17:50:07.032Z,19.35
2023-02-14T17:52:34.420Z,21.10
2023-02-14T17:55:01.059Z,19.30
2023-02-14T17:57:27.972Z,19.00
2023-02-14T17:59:54.581Z,18.20
2023-02-14T18:02:21.189Z,21.92
2023-02-14T18:04:48.487Z,22.15
2023-02-14T18:07:15.246Z,33.40
2023-02-14T18:09:42.279Z,32.85
2023-02-14T18:12:14.634Z,26.92
2023-02-14T18:14:42.056Z,25.85
2023-02-14T18:17:08.691Z,19.15
2023-02-14T18:19:35.317Z,16.55
2023-02-14T18:22:01.883Z,17.52
2023-02-14T18:24:37.332Z,18.42
2023-02-14T18:27:05.921Z,21.05
2023-02-14T18:29:33.250Z,23.90
2023-02-14T18:32:00.162Z,23.83
2023-02-14T18:34:26.806Z,22.10
2023-02-14T18:36:53.532Z,19.17
2023-02-14T18:39:20.185Z,18.27
2023-02-14T18:41:46.753Z,16.00
2023-02-14T18:44:13.622Z,16.87
2023-02-14T18:46:40.228Z,17.62
2023-02-14T18:49:08.380Z,16.42
2023-02-14T18:51:39.037Z,15.20
2023-02-14T18:54:06.362Z,15.32
2023-02-14T18:56:36.027Z,16.55
2023-02-14T18:59:06.780Z,14.60
2023-02-14T19:01:46.254Z,14.82
2023-02-14T19:04:13.680Z,14.65
2023-02-14T19:06:41.868Z,14.87
2023-02-14T19:09:11.217Z,16.10
2023-02-14T19:11:38.697Z,14.32
2023-02-14T19:14:10.042Z,15.55
2023-02-14T19:16:42.185Z,14.93
2023-02-14T19:19:09.082Z,15.95
2023-02-14T19:21:36.837Z,14.85
2023-02-14T19:24:06.916Z,14.70
2023-02-14T19:26:37.695Z,14.38
2023-02-14T19:29:06.932Z,15.15
2023-02-14T19:31:38.267Z,16.83
2023-02-14T19:34:06.521Z,15.90
2023-02-14T19:36:37.570Z,17.48
2023-02-14T19:39:05.346Z,16.08
2023-02-14T19:41:36.699Z,16.33
2023-02-14T19:44:05.353Z,16.17
2023-02-14T19:46:32.782Z,17.02
2023-02-14T19:49:00.357Z,15.30
2023-02-14T19:51:33.872Z,16.55
2023-02-14T19:54:03.425Z,15.90
2023-02-14T19:56:32.762Z,15.25
2023-02-14T19:59:00.000Z,16.20
2023-02-14T20:01:33.775Z,15.23
2023-02-14T20:04:00.794Z,16.35
2023-02-14T20:06:29.418Z,16.73
2023-02-14T20:08:56.258Z,15.85
2023-02-14T20:11:29.035Z,17.30
2023-02-14T20:13:56.041Z,16.67
2023-02-14T20:16:24.279Z,17.12
2023-02-14T20:18:51.129Z,15.52
2023-02-14T20:21:28.307Z,16.25
2023-02-14T20:24:01.213Z,16.92
2023-02-14T20:26:30.297Z,16.10
2023-02-14T20:29:04.037Z,15.65
2023-02-14T20:31:32.840Z,16.08
2023-02-14T20:34:00.541Z,15.93
2023-02-14T20:36:27.419Z,15.73
2023-02-14T20:39:02.564Z,16.25
2023-02-14T20:41:30.279Z,16.40
2023-02-14T20:44:04.332Z,16.27
2023-02-14T20:46:31.666Z,16.70
2023-02-14T20:48:58.376Z,15.38
2023-02-14T20:51:25.679Z,15.57
2023-02-14T20:53:52.878Z,15.45
2023-02-14T20:56:21.044Z,16.17
2023-02-14T20:59:15.714Z,15.55
2023-02-14T21:02:02.418Z,16.17
2023-02-14T21:04:30.173Z,17.73
2023-02-14T21:06:57.937Z,15.70
2023-02-14T21:09:24.644Z,16.87
2023-02-14T21:11:53.814Z,16.15
2023-02-14T21:14:21.000Z,15.45
2023-02-14T21:17:06.373Z,15.07
2023-02-14T21:19:32.969Z,14.93
2023-02-14T21:21:59.578Z,14.23
2023-02-14T21:24:26.168Z,14.63
2023-02-14T21:27:04.942Z,14.77
2023-02-14T21:29:49.838Z,14.87
2023-02-14T21:32:34.843Z,14.77
2023-02-14T21:35:16.568Z,13.75
2023-02-14T21:37:43.503Z,14.93
2023-02-14T21:40:10.316Z,14.95
2023-02-14T21:42:36.844Z,14.27
2023-02-14T21:45:23.102Z,14.27
2023-02-14T21:48:09.606Z,15.35
2023-02-14T21:50:38.997Z,15.00
2023-02-14T21:53:07.545Z,15.73
2023-02-14T21:55:35.235Z,14.77
2023-02-14T21:58:01.920Z,16.05
2023-02-14T22:00:28.453Z,15.00
2023-02-14T22:03:04.509Z,15.05
2023-02-14T22:05:31.056Z,14.77
2023-02-14T22:07:57.608Z,15.13
2023-02-14T22:10:24.201Z,16.37
2023-02-14T22:16:15.776Z,17.02
2023-02-14T22:18:42.819Z,16.98
2023-02-14T22:21:14.481Z,18.05
2023-02-14T22:23:41.318Z,17.12
2023-02-14T22:26:14.753Z,16.23
2023-02-14T22:28:42.638Z,17.42
2023-02-14T22:31:10.150Z,18.33
2023-02-14T22:33:37.873Z,17.83
2023-02-14T22:36:05.614Z,17.67
2023-02-14T22:38:33.020Z,18.73
2023-02-14T22:41:11.744Z,17.90
2023-02-14T22:43:39.753Z,18.12
2023-02-14T22:46:09.951Z,18.27
2023-02-14T22:48:37.839Z,18.02
2023-02-14T22:51:09.584Z,17.67
2023-02-14T22:53:36.730Z,17.77
2023-02-14T22:56:31.249Z,19.12
2023-02-14T22:59:00.906Z,18.25
2023-02-14T23:01:28.200Z,18.23
2023-02-14T23:03:57.552Z,19.20
2023-02-14T23:06:26.312Z,19.48
2023-02-14T23:08:54.091Z,18.15
2023-02-14T23:11:27.359Z,18.42
2023-02-14T23:14:13.407Z,18.10
2023-02-14T23:19:38.509Z,18.52
2023-02-14T23:22:08.449Z,17.15
2023-02-14T23:24:35.065Z,17.65
2023-02-14T23:27:02.334Z,18.37
2023-02-14T23:29:29.839Z,18.02
2023-02-14T23:32:39.258Z,18.52
2023-02-14T23:35:30.790Z,17.80
2023-02-14T23:37:57.382Z,17.70
2023-02-14T23:40:24.632Z,16.75
2023-02-14T23:42:53.945Z,18.05
2023-02-14T23:45:35.871Z,17.98
2023-02-14T23:48:05.086Z,16.25
2023-02-14T23:50:50.101Z,17.10
2023-02-14T23:53:16.717Z,16.52
2023-02-14T23:55:43.267Z,17.20
2023-02-14T23:58:09.909Z,16.70
